sensor_id;sensor_type;location;lat;lon;timestamp;temperature;humidity
14349;DHT22;7258;50.376;8.742;2022-12-07T00:01:04;3.30;99.90
14349;DHT22;7258;50.376;8.742;2022-12-07T00:03:08;3.30;99.90
14349;DHT22;7258;50.376;8.742;2022-12-07T00:05:10;3.30;99.90
14349;DHT22;7258;50.376;8.742;2022-12-07T00:07:13;3.30;99.90
14349;DHT22;7258;50.376;8.742;2022-12-07T00:09:17;3.30;99.90
14349;DHT22;7258;50.376;8.742;2022-12-07T00:11:22;3.40;99.90
14349;DHT22;7258;50.376;8.742;2022-12-07T00:13:26;3.30;99.90
14349;DHT22;7258;50.376;8.742;2022-12-07T00:15:29;3.40;99.90
14349;DHT22;7258;50.376;8.742;2022-12-07T00:17:32;3.40;99.90
14349;DHT22;7258;50.376;8.742;2022-12-07T00:19:35;3.40;99.90
14349;DHT22;7258;50.376;8.742;2022-12-07T00:21:38;3.40;99.90
14349;DHT22;7258;50.376;8.742;2022-12-07T00:23:42;3.40;99.90
14349;DHT22;7258;50.376;8.742;2022-12-07T00:25:45;3.40;99.90
14349;DHT22;7258;50.376;8.742;2022-12-07T00:27:52;3.30;99.90
14349;DHT22;7258;50.376;8.742;2022-12-07T00:29:56;3.30;99.90
14349;DHT22;7258;50.376;8.742;2022-12-07T00:32:00;3.30;99.90
14349;DHT22;7258;50.376;8.742;2022-12-07T00:34:03;3.30;99.90
14349;DHT22;7258;50.376;8.742;2022-12-07T00:36:07;3.30;99.90
14349;DHT22;7258;50.376;8.742;2022-12-07T00:38:11;3.20;99.90
14349;DHT22;7258;50.376;8.742;2022-12-07T00:40:13;3.30;99.90
14349;DHT22;7258;50.376;8.742;2022-12-07T00:42:16;3.30;99.90
14349;DHT22;7258;50.376;8.742;2022-12-07T00:44:20;3.20;99.90
14349;DHT22;7258;50.376;8.742;2022-12-07T00:46:25;3.30;99.90
14349;DHT22;7258;50.376;8.742;2022-12-07T00:48:28;3.20;99.90
14349;DHT22;7258;50.376;8.742;2022-12-07T00:50:31;3.20;99.90
14349;DHT22;7258;50.376;8.742;2022-12-07T00:52:33;3.20;99.90
14349;DHT22;7258;50.376;8.742;2022-12-07T00:54:36;3.20;99.90
14349;DHT22;7258;50.376;8.742;2022-12-07T00:56:39;3.20;99.90
14349;DHT22;7258;50.376;8.742;2022-12-07T00:58:43;3.20;99.90
14349;DHT22;7258;50.376;8.742;2022-12-07T01:00:46;3.20;99.90
14349;DHT22;7258;50.376;8.742;2022-12-07T01:02:50;3.20;99.90
14349;DHT22;7258;50.376;8.742;2022-12-07T01:04:52;3.10;99.90
14349;DHT22;7258;50.376;8.742;2022-12-07T01:06:55;3.10;99.90
14349;DHT22;7258;50.376;8.742;2022-12-07T01:08:58;3.10;99.90
14349;DHT22;7258;50.376;8.742;2022-12-07T01:11:05;3.10;99.90
14349;DHT22;7258;50.376;8.742;2022-12-07T01:13:08;3.10;99.90
14349;DHT22;7258;50.376;8.742;2022-12-07T01:15:13;3.10;99.90
14349;DHT22;7258;50.376;8.742;2022-12-07T01:17:16;3.10;99.90
14349;DHT22;7258;50.376;8.742;2022-12-07T01:19:21;3.10;99.90
14349;DHT22;7258;50.376;8.742;2022-12-07T01:21:26;3.10;99.90
14349;DHT22;7258;50.376;8.742;2022-12-07T01:23:29;3.10;99.90
14349;DHT22;7258;50.376;8.742;2022-12-07T01:25:32;3.10;99.90
14349;DHT22;7258;50.376;8.742;2022-12-07T01:27:36;3.10;99.90
14349;DHT22;7258;50.376;8.742;2022-12-07T01:29:39;3.10;99.90
14349;DHT22;7258;50.376;8.742;2022-12-07T01:31:42;3.10;99.90
14349;DHT22;7258;50.376;8.742;2022-12-07T01:33:47;3.20;99.90
14349;DHT22;7258;50.376;8.742;2022-12-07T01:35:51;3.20;99.90
14349;DHT22;7258;50.376;8.742;2022-12-07T01:37:54;3.30;99.90
14349;DHT22;7258;50.376;8.742;2022-12-07T01:39:59;3.20;99.90
14349;DHT22;7258;50.376;8.742;2022-12-07T01:42:02;3.30;99.90
14349;DHT22;7258;50.376;8.742;2022-12-07T01:44:15;3.30;99.90
14349;DHT22;7258;50.376;8.742;2022-12-07T01:46:18;3.30;99.90
14349;DHT22;7258;50.376;8.742;2022-12-07T01:48:24;3.30;99.90
14349;DHT22;7258;50.376;8.742;2022-12-07T01:50:29;3.30;99.90
14349;DHT22;7258;50.376;8.742;2022-12-07T01:52:35;3.30;99.90
14349;DHT22;7258;50.376;8.742;2022-12-07T01:54:39;3.30;99.90
14349;DHT22;7258;50.376;8.742;2022-12-07T01:56:46;3.30;99.90
14349;DHT22;7258;50.376;8.742;2022-12-07T01:58:52;3.30;99.90
14349;DHT22;7258;50.376;8.742;2022-12-07T02:00:55;3.30;99.90
14349;DHT22;7258;50.376;8.742;2022-12-07T02:03:03;3.40;99.90
14349;DHT22;7258;50.376;8.742;2022-12-07T02:05:07;3.50;99.90
14349;DHT22;7258;50.376;8.742;2022-12-07T02:07:10;3.50;99.90
14349;DHT22;7258;50.376;8.742;2022-12-07T02:09:14;3.50;99.90
14349;DHT22;7258;50.376;8.742;2022-12-07T02:11:18;3.50;99.90
14349;DHT22;7258;50.376;8.742;2022-12-07T02:13:23;3.50;99.90
14349;DHT22;7258;50.376;8.742;2022-12-07T02:15:33;3.50;99.90
14349;DHT22;7258;50.376;8.742;2022-12-07T02:17:40;3.50;99.90
14349;DHT22;7258;50.376;8.742;2022-12-07T02:20:07;3.50;99.90
14349;DHT22;7258;50.376;8.742;2022-12-07T02:22:24;3.60;99.90
14349;DHT22;7258;50.376;8.742;2022-12-07T02:24:45;3.60;99.90
14349;DHT22;7258;50.376;8.742;2022-12-07T02:27:27;3.60;99.90
14349;DHT22;7258;50.376;8.742;2022-12-07T02:29:35;3.60;99.90
14349;DHT22;7258;50.376;8.742;2022-12-07T02:31:44;3.60;99.90
14349;DHT22;7258;50.376;8.742;2022-12-07T02:33:52;3.60;99.90
14349;DHT22;7258;50.376;8.742;2022-12-07T02:36:00;3.60;99.90
14349;DHT22;7258;50.376;8.742;2022-12-07T02:38:11;3.70;99.90
14349;DHT22;7258;50.376;8.742;2022-12-07T02:40:20;3.70;99.90
14349;DHT22;7258;50.376;8.742;2022-12-07T02:42:28;3.60;99.90
14349;DHT22;7258;50.376;8.742;2022-12-07T02:44:34;3.60;99.90
14349;DHT22;7258;50.376;8.742;2022-12-07T02:46:40;3.70;99.90
14349;DHT22;7258;50.376;8.742;2022-12-07T02:48:45;3.70;99.90
14349;DHT22;7258;50.376;8.742;2022-12-07T02:50:50;3.70;99.90
14349;DHT22;7258;50.376;8.742;2022-12-07T02:52:53;3.70;99.90
14349;DHT22;7258;50.376;8.742;2022-12-07T02:54:56;3.80;99.90
14349;DHT22;7258;50.376;8.742;2022-12-07T02:57:04;3.70;99.90
14349;DHT22;7258;50.376;8.742;2022-12-07T02:59:17;3.70;99.90
14349;DHT22;7258;50.376;8.742;2022-12-07T03:01:30;3.70;99.90
14349;DHT22;7258;50.376;8.742;2022-12-07T03:03:37;3.70;99.90
14349;DHT22;7258;50.376;8.742;2022-12-07T03:05:59;3.70;99.90
14349;DHT22;7258;50.376;8.742;2022-12-07T03:08:07;3.80;99.90
14349;DHT22;7258;50.376;8.742;2022-12-07T03:10:19;3.80;99.90
14349;DHT22;7258;50.376;8.742;2022-12-07T03:12:29;3.80;99.90
14349;DHT22;7258;50.376;8.742;2022-12-07T03:14:38;3.80;99.90
14349;DHT22;7258;50.376;8.742;2022-12-07T03:16:45;3.80;99.90
14349;DHT22;7258;50.376;8.742;2022-12-07T03:18:54;3.80;99.90
14349;DHT22;7258;50.376;8.742;2022-12-07T03:21:04;3.80;99.90
14349;DHT22;7258;50.376;8.742;2022-12-07T03:23:10;3.80;99.90
14349;DHT22;7258;50.376;8.742;2022-12-07T03:25:15;3.80;99.90
14349;DHT22;7258;50.376;8.742;2022-12-07T03:27:21;3.80;99.90
14349;DHT22;7258;50.376;8.742;2022-12-07T03:29:28;3.80;99.90
14349;DHT22;7258;50.376;8.742;2022-12-07T03:31:33;3.80;99.90
14349;DHT22;7258;50.376;8.742;2022-12-07T03:33:44;3.80;99.90
14349;DHT22;7258;50.376;8.742;2022-12-07T03:35:52;3.80;99.90
14349;DHT22;7258;50.376;8.742;2022-12-07T03:37:59;3.80;99.90
14349;DHT22;7258;50.376;8.742;2022-12-07T03:40:07;3.80;99.90
14349;DHT22;7258;50.376;8.742;2022-12-07T03:42:11;3.80;99.90
14349;DHT22;7258;50.376;8.742;2022-12-07T03:44:15;3.80;99.90
14349;DHT22;7258;50.376;8.742;2022-12-07T03:46:24;3.80;99.90
14349;DHT22;7258;50.376;8.742;2022-12-07T03:48:35;3.80;99.90
14349;DHT22;7258;50.376;8.742;2022-12-07T03:50:44;3.80;99.90
14349;DHT22;7258;50.376;8.742;2022-12-07T03:52:54;3.80;99.90
14349;DHT22;7258;50.376;8.742;2022-12-07T03:55:00;3.80;99.90
14349;DHT22;7258;50.376;8.742;2022-12-07T03:57:05;3.80;99.90
14349;DHT22;7258;50.376;8.742;2022-12-07T03:59:10;3.80;99.90
14349;DHT22;7258;50.376;8.742;2022-12-07T04:01:13;3.80;99.90
14349;DHT22;7258;50.376;8.742;2022-12-07T04:03:16;3.80;99.90
14349;DHT22;7258;50.376;8.742;2022-12-07T04:05:19;3.80;99.90
14349;DHT22;7258;50.376;8.742;2022-12-07T04:07:24;3.80;99.90
14349;DHT22;7258;50.376;8.742;2022-12-07T04:09:27;3.80;99.90
14349;DHT22;7258;50.376;8.742;2022-12-07T04:11:29;3.80;99.90
14349;DHT22;7258;50.376;8.742;2022-12-07T04:13:32;3.80;99.90
14349;DHT22;7258;50.376;8.742;2022-12-07T04:15:55;3.80;99.90
14349;DHT22;7258;50.376;8.742;2022-12-07T04:17:58;3.80;99.90
14349;DHT22;7258;50.376;8.742;2022-12-07T04:20:02;3.80;99.90
14349;DHT22;7258;50.376;8.742;2022-12-07T04:22:06;3.90;99.90
14349;DHT22;7258;50.376;8.742;2022-12-07T04:24:12;3.90;99.90
14349;DHT22;7258;50.376;8.742;2022-12-07T04:26:15;3.90;99.90
14349;DHT22;7258;50.376;8.742;2022-12-07T04:28:18;3.90;99.90
14349;DHT22;7258;50.376;8.742;2022-12-07T04:30:21;3.90;99.90
14349;DHT22;7258;50.376;8.742;2022-12-07T04:32:23;4.00;99.90
14349;DHT22;7258;50.376;8.742;2022-12-07T04:34:26;4.00;99.90
14349;DHT22;7258;50.376;8.742;2022-12-07T04:36:29;4.00;99.90
14349;DHT22;7258;50.376;8.742;2022-12-07T04:38:33;4.00;99.90
14349;DHT22;7258;50.376;8.742;2022-12-07T04:40:37;4.00;99.90
14349;DHT22;7258;50.376;8.742;2022-12-07T04:42:41;4.00;99.90
14349;DHT22;7258;50.376;8.742;2022-12-07T04:44:44;4.00;99.90
14349;DHT22;7258;50.376;8.742;2022-12-07T04:46:47;4.00;99.90
14349;DHT22;7258;50.376;8.742;2022-12-07T04:48:51;4.00;99.90
14349;DHT22;7258;50.376;8.742;2022-12-07T04:50:54;4.00;99.90
14349;DHT22;7258;50.376;8.742;2022-12-07T04:52:57;4.00;99.90
14349;DHT22;7258;50.376;8.742;2022-12-07T04:55:00;4.00;99.90
14349;DHT22;7258;50.376;8.742;2022-12-07T04:57:04;4.00;99.90
14349;DHT22;7258;50.376;8.742;2022-12-07T04:59:07;4.00;99.90
14349;DHT22;7258;50.376;8.742;2022-12-07T05:01:10;4.00;99.90
14349;DHT22;7258;50.376;8.742;2022-12-07T05:03:13;4.00;99.90
14349;DHT22;7258;50.376;8.742;2022-12-07T05:05:16;4.00;99.90
14349;DHT22;7258;50.376;8.742;2022-12-07T05:07:19;4.00;99.90
14349;DHT22;7258;50.376;8.742;2022-12-07T05:09:21;4.00;99.90
14349;DHT22;7258;50.376;8.742;2022-12-07T05:11:24;4.00;99.90
14349;DHT22;7258;50.376;8.742;2022-12-07T05:13:44;4.00;99.90
14349;DHT22;7258;50.376;8.742;2022-12-07T05:15:47;4.00;99.90
14349;DHT22;7258;50.376;8.742;2022-12-07T05:17:49;4.00;99.90
14349;DHT22;7258;50.376;8.742;2022-12-07T05:19:53;3.90;99.90
14349;DHT22;7258;50.376;8.742;2022-12-07T05:21:56;4.00;99.90
14349;DHT22;7258;50.376;8.742;2022-12-07T05:23:59;4.00;99.90
14349;DHT22;7258;50.376;8.742;2022-12-07T05:26:02;4.00;99.90
14349;DHT22;7258;50.376;8.742;2022-12-07T05:28:05;4.00;99.90
14349;DHT22;7258;50.376;8.742;2022-12-07T05:30:11;4.00;99.90
14349;DHT22;7258;50.376;8.742;2022-12-07T05:32:13;4.00;99.90
14349;DHT22;7258;50.376;8.742;2022-12-07T05:34:17;4.00;99.90
14349;DHT22;7258;50.376;8.742;2022-12-07T05:36:20;4.00;99.90
14349;DHT22;7258;50.376;8.742;2022-12-07T05:38:22;4.00;99.90
14349;DHT22;7258;50.376;8.742;2022-12-07T05:40:26;4.00;99.90
14349;DHT22;7258;50.376;8.742;2022-12-07T05:42:29;4.00;99.90
14349;DHT22;7258;50.376;8.742;2022-12-07T05:44:32;4.00;99.90
14349;DHT22;7258;50.376;8.742;2022-12-07T05:46:36;4.00;99.90
14349;DHT22;7258;50.376;8.742;2022-12-07T05:48:39;4.00;99.90
14349;DHT22;7258;50.376;8.742;2022-12-07T05:50:42;4.00;99.90
14349;DHT22;7258;50.376;8.742;2022-12-07T05:52:45;4.10;99.90
14349;DHT22;7258;50.376;8.742;2022-12-07T05:54:47;4.10;99.90
14349;DHT22;7258;50.376;8.742;2022-12-07T05:56:50;4.10;99.90
14349;DHT22;7258;50.376;8.742;2022-12-07T05:58:53;4.10;99.90
14349;DHT22;7258;50.376;8.742;2022-12-07T06:01:13;4.10;99.90
14349;DHT22;7258;50.376;8.742;2022-12-07T06:03:17;4.10;99.90
14349;DHT22;7258;50.376;8.742;2022-12-07T06:05:21;4.10;99.90
14349;DHT22;7258;50.376;8.742;2022-12-07T06:07:23;4.10;99.90
14349;DHT22;7258;50.376;8.742;2022-12-07T06:09:27;4.10;99.90
14349;DHT22;7258;50.376;8.742;2022-12-07T06:11:30;4.10;99.90
14349;DHT22;7258;50.376;8.742;2022-12-07T06:13:50;4.10;99.90
14349;DHT22;7258;50.376;8.742;2022-12-07T06:15:53;4.10;99.90
14349;DHT22;7258;50.376;8.742;2022-12-07T06:17:56;4.10;99.90
14349;DHT22;7258;50.376;8.742;2022-12-07T06:20:00;4.10;99.90
14349;DHT22;7258;50.376;8.742;2022-12-07T06:22:03;4.10;99.90
14349;DHT22;7258;50.376;8.742;2022-12-07T06:24:07;4.10;99.90
14349;DHT22;7258;50.376;8.742;2022-12-07T06:26:09;4.10;99.90
14349;DHT22;7258;50.376;8.742;2022-12-07T06:28:12;4.10;99.90
14349;DHT22;7258;50.376;8.742;2022-12-07T06:30:16;4.10;99.90
14349;DHT22;7258;50.376;8.742;2022-12-07T06:32:19;4.10;99.90
14349;DHT22;7258;50.376;8.742;2022-12-07T06:34:23;4.10;99.90
14349;DHT22;7258;50.376;8.742;2022-12-07T06:36:27;4.10;99.90
14349;DHT22;7258;50.376;8.742;2022-12-07T06:38:30;4.10;99.90
14349;DHT22;7258;50.376;8.742;2022-12-07T06:40:33;4.10;99.90
14349;DHT22;7258;50.376;8.742;2022-12-07T06:42:35;4.10;99.90
14349;DHT22;7258;50.376;8.742;2022-12-07T06:44:38;4.10;99.90
14349;DHT22;7258;50.376;8.742;2022-12-07T06:46:41;4.10;99.90
14349;DHT22;7258;50.376;8.742;2022-12-07T06:48:46;4.10;99.90
14349;DHT22;7258;50.376;8.742;2022-12-07T06:50:49;4.10;99.90
14349;DHT22;7258;50.376;8.742;2022-12-07T06:52:57;4.10;99.90
14349;DHT22;7258;50.376;8.742;2022-12-07T06:55:00;4.10;99.90
14349;DHT22;7258;50.376;8.742;2022-12-07T06:57:03;4.10;99.90
14349;DHT22;7258;50.376;8.742;2022-12-07T06:59:06;4.10;99.90
14349;DHT22;7258;50.376;8.742;2022-12-07T07:01:10;4.10;99.90
14349;DHT22;7258;50.376;8.742;2022-12-07T07:03:13;4.10;99.90
14349;DHT22;7258;50.376;8.742;2022-12-07T07:05:16;4.10;99.90
14349;DHT22;7258;50.376;8.742;2022-12-07T07:07:18;4.10;99.90
14349;DHT22;7258;50.376;8.742;2022-12-07T07:09:22;4.10;99.90
14349;DHT22;7258;50.376;8.742;2022-12-07T07:11:25;4.20;99.90
14349;DHT22;7258;50.376;8.742;2022-12-07T07:13:29;4.10;99.90
14349;DHT22;7258;50.376;8.742;2022-12-07T07:15:32;4.10;99.90
14349;DHT22;7258;50.376;8.742;2022-12-07T07:17:35;4.20;99.90
14349;DHT22;7258;50.376;8.742;2022-12-07T07:19:37;4.20;99.90
14349;DHT22;7258;50.376;8.742;2022-12-07T07:21:40;4.20;99.90
14349;DHT22;7258;50.376;8.742;2022-12-07T07:23:43;4.20;99.90
14349;DHT22;7258;50.376;8.742;2022-12-07T07:25:47;4.30;99.90
14349;DHT22;7258;50.376;8.742;2022-12-07T07:27:50;4.20;99.90
14349;DHT22;7258;50.376;8.742;2022-12-07T07:29:53;4.20;99.90
14349;DHT22;7258;50.376;8.742;2022-12-07T07:31:56;4.20;99.90
14349;DHT22;7258;50.376;8.742;2022-12-07T07:34:07;4.20;99.90
14349;DHT22;7258;50.376;8.742;2022-12-07T07:36:09;4.20;99.90
14349;DHT22;7258;50.376;8.742;2022-12-07T07:38:12;4.20;99.90
14349;DHT22;7258;50.376;8.742;2022-12-07T07:40:15;4.20;99.90
14349;DHT22;7258;50.376;8.742;2022-12-07T07:42:19;4.10;99.90
14349;DHT22;7258;50.376;8.742;2022-12-07T07:44:22;4.10;99.90
14349;DHT22;7258;50.376;8.742;2022-12-07T07:46:25;4.00;99.90
14349;DHT22;7258;50.376;8.742;2022-12-07T07:48:27;3.90;99.90
14349;DHT22;7258;50.376;8.742;2022-12-07T07:50:30;3.90;99.90
14349;DHT22;7258;50.376;8.742;2022-12-07T07:52:33;3.80;99.90
14349;DHT22;7258;50.376;8.742;2022-12-07T07:54:36;3.70;99.90
14349;DHT22;7258;50.376;8.742;2022-12-07T07:56:39;3.70;99.90
14349;DHT22;7258;50.376;8.742;2022-12-07T07:58:43;3.70;99.90
14349;DHT22;7258;50.376;8.742;2022-12-07T08:00:46;3.60;99.90
14349;DHT22;7258;50.376;8.742;2022-12-07T08:02:48;3.60;99.90
14349;DHT22;7258;50.376;8.742;2022-12-07T08:04:51;3.60;99.90
14349;DHT22;7258;50.376;8.742;2022-12-07T08:06:56;3.60;99.90
14349;DHT22;7258;50.376;8.742;2022-12-07T08:08:59;3.60;99.90
14349;DHT22;7258;50.376;8.742;2022-12-07T08:11:04;3.60;99.90
14349;DHT22;7258;50.376;8.742;2022-12-07T08:13:07;3.60;99.90
14349;DHT22;7258;50.376;8.742;2022-12-07T08:15:15;3.60;99.90
14349;DHT22;7258;50.376;8.742;2022-12-07T08:17:17;3.60;99.90
14349;DHT22;7258;50.376;8.742;2022-12-07T08:19:20;3.50;99.90
14349;DHT22;7258;50.376;8.742;2022-12-07T08:21:23;3.50;99.90
14349;DHT22;7258;50.376;8.742;2022-12-07T08:23:26;3.50;99.90
14349;DHT22;7258;50.376;8.742;2022-12-07T08:25:40;3.60;99.90
14349;DHT22;7258;50.376;8.742;2022-12-07T08:27:43;3.70;99.90
14349;DHT22;7258;50.376;8.742;2022-12-07T08:29:46;3.70;99.90
14349;DHT22;7258;50.376;8.742;2022-12-07T08:31:50;3.80;99.90
14349;DHT22;7258;50.376;8.742;2022-12-07T08:33:53;3.90;99.90
14349;DHT22;7258;50.376;8.742;2022-12-07T08:36:00;4.00;99.90
14349;DHT22;7258;50.376;8.742;2022-12-07T08:38:03;4.10;99.90
14349;DHT22;7258;50.376;8.742;2022-12-07T08:40:07;4.10;99.90
14349;DHT22;7258;50.376;8.742;2022-12-07T08:42:11;4.10;99.90
14349;DHT22;7258;50.376;8.742;2022-12-07T08:44:14;4.10;99.90
14349;DHT22;7258;50.376;8.742;2022-12-07T08:46:21;4.10;99.90
14349;DHT22;7258;50.376;8.742;2022-12-07T08:48:27;4.10;99.90
14349;DHT22;7258;50.376;8.742;2022-12-07T08:50:31;4.20;99.90
14349;DHT22;7258;50.376;8.742;2022-12-07T08:52:35;4.30;99.90
14349;DHT22;7258;50.376;8.742;2022-12-07T08:54:40;4.30;99.90
14349;DHT22;7258;50.376;8.742;2022-12-07T08:56:43;4.40;99.90
14349;DHT22;7258;50.376;8.742;2022-12-07T08:58:46;4.40;99.90
14349;DHT22;7258;50.376;8.742;2022-12-07T09:00:49;4.50;99.90
14349;DHT22;7258;50.376;8.742;2022-12-07T09:02:53;4.60;99.90
14349;DHT22;7258;50.376;8.742;2022-12-07T09:04:57;4.60;99.90
14349;DHT22;7258;50.376;8.742;2022-12-07T09:07:00;4.70;99.90
14349;DHT22;7258;50.376;8.742;2022-12-07T09:09:03;4.70;99.90
14349;DHT22;7258;50.376;8.742;2022-12-07T09:11:06;4.80;99.90
14349;DHT22;7258;50.376;8.742;2022-12-07T09:13:09;4.90;99.90
14349;DHT22;7258;50.376;8.742;2022-12-07T09:15:12;5.00;99.90
14349;DHT22;7258;50.376;8.742;2022-12-07T09:17:15;5.10;99.90
14349;DHT22;7258;50.376;8.742;2022-12-07T09:19:18;5.20;99.90
14349;DHT22;7258;50.376;8.742;2022-12-07T09:21:22;5.30;99.90
14349;DHT22;7258;50.376;8.742;2022-12-07T09:23:25;5.30;99.90
14349;DHT22;7258;50.376;8.742;2022-12-07T09:25:28;5.50;99.90
14349;DHT22;7258;50.376;8.742;2022-12-07T09:27:31;5.60;99.90
14349;DHT22;7258;50.376;8.742;2022-12-07T09:29:34;5.60;99.90
14349;DHT22;7258;50.376;8.742;2022-12-07T09:31:37;5.70;99.90
14349;DHT22;7258;50.376;8.742;2022-12-07T09:33:40;5.70;99.90
14349;DHT22;7258;50.376;8.742;2022-12-07T09:35:44;5.70;99.90
14349;DHT22;7258;50.376;8.742;2022-12-07T09:37:49;5.60;99.90
14349;DHT22;7258;50.376;8.742;2022-12-07T09:39:52;5.60;99.90
14349;DHT22;7258;50.376;8.742;2022-12-07T09:41:57;5.60;99.90
14349;DHT22;7258;50.376;8.742;2022-12-07T09:44:05;5.60;99.90
14349;DHT22;7258;50.376;8.742;2022-12-07T09:46:13;5.70;99.90
14349;DHT22;7258;50.376;8.742;2022-12-07T09:48:21;5.80;99.90
14349;DHT22;7258;50.376;8.742;2022-12-07T09:50:27;6.00;99.90
14349;DHT22;7258;50.376;8.742;2022-12-07T09:52:30;6.10;99.90
14349;DHT22;7258;50.376;8.742;2022-12-07T09:54:44;6.20;99.90
14349;DHT22;7258;50.376;8.742;2022-12-07T09:56:47;6.30;99.90
14349;DHT22;7258;50.376;8.742;2022-12-07T09:58:57;6.30;99.90
14349;DHT22;7258;50.376;8.742;2022-12-07T10:01:05;6.20;99.90
14349;DHT22;7258;50.376;8.742;2022-12-07T10:03:12;6.20;99.90
14349;DHT22;7258;50.376;8.742;2022-12-07T10:05:18;6.10;99.90
14349;DHT22;7258;50.376;8.742;2022-12-07T10:07:25;6.00;99.90
14349;DHT22;7258;50.376;8.742;2022-12-07T10:09:28;5.90;99.90
14349;DHT22;7258;50.376;8.742;2022-12-07T10:11:58;5.90;99.90
14349;DHT22;7258;50.376;8.742;2022-12-07T10:14:11;5.80;99.90
14349;DHT22;7258;50.376;8.742;2022-12-07T10:16:40;5.90;99.90
14349;DHT22;7258;50.376;8.742;2022-12-07T10:18:43;5.90;99.90
14349;DHT22;7258;50.376;8.742;2022-12-07T10:20:47;5.90;99.90
14349;DHT22;7258;50.376;8.742;2022-12-07T10:22:55;5.90;99.90
14349;DHT22;7258;50.376;8.742;2022-12-07T10:25:08;5.80;99.90
14349;DHT22;7258;50.376;8.742;2022-12-07T10:27:30;5.90;99.90
14349;DHT22;7258;50.376;8.742;2022-12-07T10:29:36;5.80;99.90
14349;DHT22;7258;50.376;8.742;2022-12-07T10:31:40;5.80;99.90
14349;DHT22;7258;50.376;8.742;2022-12-07T10:33:49;5.80;99.90
14349;DHT22;7258;50.376;8.742;2022-12-07T10:35:53;5.80;99.90
14349;DHT22;7258;50.376;8.742;2022-12-07T10:37:57;5.80;99.90
14349;DHT22;7258;50.376;8.742;2022-12-07T10:40:00;5.90;99.90
14349;DHT22;7258;50.376;8.742;2022-12-07T10:42:03;5.90;99.90
14349;DHT22;7258;50.376;8.742;2022-12-07T10:44:21;6.00;99.90
14349;DHT22;7258;50.376;8.742;2022-12-07T10:49:11;6.00;99.90
14349;DHT22;7258;50.376;8.742;2022-12-07T10:51:25;6.10;99.90
14349;DHT22;7258;50.376;8.742;2022-12-07T10:53:47;6.10;99.90
14349;DHT22;7258;50.376;8.742;2022-12-07T10:58:38;6.30;99.90
14349;DHT22;7258;50.376;8.742;2022-12-07T11:00:58;6.50;99.90
14349;DHT22;7258;50.376;8.742;2022-12-07T11:03:26;6.50;99.90
14349;DHT22;7258;50.376;8.742;2022-12-07T11:05:39;6.40;99.90
14349;DHT22;7258;50.376;8.742;2022-12-07T11:07:55;6.40;99.90
14349;DHT22;7258;50.376;8.742;2022-12-07T11:10:05;6.50;99.90
14349;DHT22;7258;50.376;8.742;2022-12-07T11:12:15;6.60;99.90
14349;DHT22;7258;50.376;8.742;2022-12-07T11:14:28;6.50;99.90
14349;DHT22;7258;50.376;8.742;2022-12-07T11:16:48;6.50;99.90
14349;DHT22;7258;50.376;8.742;2022-12-07T11:19:03;6.50;99.90
14349;DHT22;7258;50.376;8.742;2022-12-07T11:21:13;6.50;99.90
14349;DHT22;7258;50.376;8.742;2022-12-07T11:23:26;6.50;99.90
14349;DHT22;7258;50.376;8.742;2022-12-07T11:25:39;6.50;99.90
14349;DHT22;7258;50.376;8.742;2022-12-07T11:27:52;6.50;99.90
14349;DHT22;7258;50.376;8.742;2022-12-07T11:30:11;6.40;99.90
14349;DHT22;7258;50.376;8.742;2022-12-07T11:32:21;6.20;99.90
14349;DHT22;7258;50.376;8.742;2022-12-07T11:34:29;6.20;99.90
14349;DHT22;7258;50.376;8.742;2022-12-07T11:36:41;6.10;99.90
14349;DHT22;7258;50.376;8.742;2022-12-07T11:38:47;6.00;99.90
14349;DHT22;7258;50.376;8.742;2022-12-07T11:40:56;6.10;99.90
14349;DHT22;7258;50.376;8.742;2022-12-07T11:43:20;6.10;99.90
14349;DHT22;7258;50.376;8.742;2022-12-07T11:45:26;6.10;99.90
14349;DHT22;7258;50.376;8.742;2022-12-07T11:47:38;6.00;99.90
14349;DHT22;7258;50.376;8.742;2022-12-07T11:49:49;6.10;99.90
14349;DHT22;7258;50.376;8.742;2022-12-07T11:51:58;6.20;99.90
14349;DHT22;7258;50.376;8.742;2022-12-07T11:54:11;6.40;99.90
14349;DHT22;7258;50.376;8.742;2022-12-07T11:56:17;6.50;99.90
14349;DHT22;7258;50.376;8.742;2022-12-07T11:58:35;6.50;99.90
14349;DHT22;7258;50.376;8.742;2022-12-07T12:00:41;6.40;99.90
14349;DHT22;7258;50.376;8.742;2022-12-07T12:02:51;6.30;99.90
14349;DHT22;7258;50.376;8.742;2022-12-07T12:04:59;6.30;99.90
14349;DHT22;7258;50.376;8.742;2022-12-07T12:07:06;6.30;99.90
14349;DHT22;7258;50.376;8.742;2022-12-07T12:09:31;6.30;99.90
14349;DHT22;7258;50.376;8.742;2022-12-07T12:11:49;6.30;99.90
14349;DHT22;7258;50.376;8.742;2022-12-07T12:14:30;6.30;99.90
14349;DHT22;7258;50.376;8.742;2022-12-07T12:17:13;6.10;99.90
14349;DHT22;7258;50.376;8.742;2022-12-07T12:19:32;6.10;99.90
14349;DHT22;7258;50.376;8.742;2022-12-07T12:21:36;6.00;99.90
14349;DHT22;7258;50.376;8.742;2022-12-07T12:23:42;6.10;99.90
14349;DHT22;7258;50.376;8.742;2022-12-07T12:25:47;6.10;99.90
14349;DHT22;7258;50.376;8.742;2022-12-07T12:27:53;6.10;99.90
14349;DHT22;7258;50.376;8.742;2022-12-07T12:29:59;6.00;99.90
14349;DHT22;7258;50.376;8.742;2022-12-07T12:32:22;6.00;99.90
14349;DHT22;7258;50.376;8.742;2022-12-07T12:34:33;6.00;99.90
14349;DHT22;7258;50.376;8.742;2022-12-07T12:36:46;5.90;99.90
14349;DHT22;7258;50.376;8.742;2022-12-07T12:38:51;5.90;99.90
14349;DHT22;7258;50.376;8.742;2022-12-07T12:40:55;5.80;99.90
14349;DHT22;7258;50.376;8.742;2022-12-07T12:42:58;5.70;99.90
14349;DHT22;7258;50.376;8.742;2022-12-07T12:45:20;5.70;99.90
14349;DHT22;7258;50.376;8.742;2022-12-07T12:47:54;5.70;99.90
14349;DHT22;7258;50.376;8.742;2022-12-07T12:50:18;5.60;99.90
14349;DHT22;7258;50.376;8.742;2022-12-07T12:52:55;5.60;99.90
14349;DHT22;7258;50.376;8.742;2022-12-07T12:55:11;5.60;99.90
14349;DHT22;7258;50.376;8.742;2022-12-07T12:57:18;5.60;99.90
14349;DHT22;7258;50.376;8.742;2022-12-07T12:59:28;5.50;99.90
14349;DHT22;7258;50.376;8.742;2022-12-07T13:01:42;5.50;99.90
14349;DHT22;7258;50.376;8.742;2022-12-07T13:03:52;5.60;99.90
14349;DHT22;7258;50.376;8.742;2022-12-07T13:06:30;5.60;99.90
14349;DHT22;7258;50.376;8.742;2022-12-07T13:08:40;5.70;99.90
14349;DHT22;7258;50.376;8.742;2022-12-07T13:10:44;5.70;99.90
14349;DHT22;7258;50.376;8.742;2022-12-07T13:12:55;5.70;99.90
14349;DHT22;7258;50.376;8.742;2022-12-07T13:14:59;5.70;99.90
14349;DHT22;7258;50.376;8.742;2022-12-07T13:17:02;5.70;99.90
14349;DHT22;7258;50.376;8.742;2022-12-07T13:21:48;5.60;99.90
14349;DHT22;7258;50.376;8.742;2022-12-07T13:23:56;5.60;99.90
14349;DHT22;7258;50.376;8.742;2022-12-07T13:26:09;5.60;99.90
14349;DHT22;7258;50.376;8.742;2022-12-07T13:28:20;5.60;99.90
14349;DHT22;7258;50.376;8.742;2022-12-07T13:30:24;5.60;99.90
14349;DHT22;7258;50.376;8.742;2022-12-07T13:32:28;5.50;99.90
14349;DHT22;7258;50.376;8.742;2022-12-07T13:34:34;5.50;99.90
14349;DHT22;7258;50.376;8.742;2022-12-07T13:36:39;5.50;99.90
14349;DHT22;7258;50.376;8.742;2022-12-07T13:38:49;5.50;99.90
14349;DHT22;7258;50.376;8.742;2022-12-07T13:41:12;5.50;99.90
14349;DHT22;7258;50.376;8.742;2022-12-07T13:43:17;5.50;99.90
14349;DHT22;7258;50.376;8.742;2022-12-07T13:45:23;5.40;99.90
14349;DHT22;7258;50.376;8.742;2022-12-07T13:47:51;5.40;99.90
14349;DHT22;7258;50.376;8.742;2022-12-07T13:49:56;5.30;99.90
14349;DHT22;7258;50.376;8.742;2022-12-07T13:52:15;5.30;99.90
14349;DHT22;7258;50.376;8.742;2022-12-07T13:54:20;5.30;99.90
14349;DHT22;7258;50.376;8.742;2022-12-07T13:56:28;5.30;99.90